Washington, IA

4:15 PM CST on February 07, 2016 (GMT -0600)
Washington Municipal

Weather History for KAWG - June, 2013

Change the Weather History Date:

Friday, June 21, 2013

  Actual Average Record
Temperature  
Mean Temperature 80 °F -  
Max Temperature 87 °F 80 °F 91 °F (2002)
Min Temperature 73 °F 61 °F 51 °F (2003)
Cooling Degree Days 15    
Growing Degree Days 30 (Base 50)    
Moisture  
Dew Point 68 °F    
Average Humidity 68    
Maximum Humidity 88    
Minimum Humidity 49    
Precipitation  
Precipitation 0.01 in - - ()
Sea Level Pressure  
Sea Level Pressure 29.99 in    
Wind  
Wind Speed 11 mph (SSE)    
Max Wind Speed 26 mph    
Max Gust Speed 34 mph    
Visibility 10 miles    
Events Rain    
Averages and records for this station are not official NWS values.
T = Trace of Precipitation, MM = Missing Value Source: NWS Daily Summary

Daily Weather History Graph

Daily Weather History Graph

Search for Another Location

Airport or City:

Trip Planner

Search our weather history database for the weather conditions in past years. The results will help you decide how hot, cold, wet, or windy it might be!

Date:

Astronomy

Jun. 21, 2013 Rise Set
Actual Time 5:33 AM CDT 8:43 PM CDT
Civil Twilight 4:59 AM CDT 9:17 PM CDT
Nautical Twilight 4:16 AM CDT 10:00 PM CDT
Astronomical Twilight 3:24 AM CDT 10:52 PM CDT
Moon 6:53 PM CDT (6/21) 3:50 AM CDT (6/21)
Length of Visible Light 16h 17m
Length of Day
15h 09m
Waxing Gibbous, 95% of the Moon is Illuminated
Jun 21
Waxing Gibbous
Jun 23
Full
Jun 29
Last Quarter
Jul 8
New
Jul 15
First Quarter

Hourly Weather History & Observations

Time (CDT) Temp. Heat Index Dew Point Humidity Pressure Visibility Wind Dir Wind Speed Gust Speed Precip Events Conditions
12:15 AM 75.2 °F - 68.0 °F 78% 30.03 in 10.0 mi South 10.4 mph - 0.01 in Rain Light Rain
12:35 AM 75.2 °F - 68.0 °F 78% 30.03 in 10.0 mi South 9.2 mph - 0.01 in   Clear
12:55 AM 75.2 °F - 68.0 °F 78% 30.03 in 10.0 mi SSE 6.9 mph - 0.01 in   Clear
1:15 AM 73.4 °F - 69.8 °F 88% 30.03 in 10.0 mi SSE 6.9 mph - N/A   Clear
1:35 AM 75.2 °F - 68.0 °F 78% 30.03 in 10.0 mi SSE 6.9 mph - N/A   Clear
1:55 AM 73.4 °F - 68.0 °F 83% 30.03 in 10.0 mi SSE 5.8 mph - N/A   Clear
2:15 AM 73.4 °F - 68.0 °F 83% 30.02 in 10.0 mi SSE 8.1 mph - N/A   Clear
2:35 AM 73.4 °F - 68.0 °F 83% 30.01 in 10.0 mi South 9.2 mph - N/A   Clear
2:55 AM 75.2 °F - 66.2 °F 73% 30.00 in 10.0 mi SSE 11.5 mph - N/A   Clear
3:15 AM 73.4 °F - 68.0 °F 83% 30.00 in 10.0 mi SSE 9.2 mph - N/A   Clear
3:35 AM 73.4 °F - 66.2 °F 78% 30.00 in 10.0 mi SSE 8.1 mph - N/A   Clear
3:55 AM 73.4 °F - 66.2 °F 78% 29.99 in 10.0 mi SSE 8.1 mph - N/A   Clear
4:15 AM 73.4 °F - 66.2 °F 78% 29.98 in 10.0 mi SSE 9.2 mph - N/A   Clear
4:35 AM 73.4 °F - 66.2 °F 78% 29.99 in 10.0 mi South 9.2 mph - N/A   Clear
4:55 AM 75.2 °F - 66.2 °F 73% 30.00 in 10.0 mi South 8.1 mph - N/A   Clear
5:15 AM 75.2 °F - 66.2 °F 73% 30.02 in 10.0 mi South 6.9 mph - N/A   Clear
5:35 AM 75.2 °F - 66.2 °F 73% 30.02 in 10.0 mi South 8.1 mph - N/A   Clear
5:55 AM 75.2 °F - 66.2 °F 73% 30.01 in 10.0 mi South 9.2 mph - N/A   Clear
6:15 AM 75.2 °F - 66.2 °F 73% 30.00 in 10.0 mi South 9.2 mph - N/A   Clear
6:35 AM 75.2 °F - 66.2 °F 73% 30.00 in 10.0 mi South 11.5 mph - N/A   Clear
6:55 AM 75.2 °F - 66.2 °F 73% 30.00 in 10.0 mi South 10.4 mph - N/A   Clear
7:15 AM 77.0 °F - 66.2 °F 69% 30.00 in 10.0 mi South 9.2 mph - N/A   Clear
7:35 AM 77.0 °F - 66.2 °F 69% 29.99 in 10.0 mi South 10.4 mph - N/A   Clear
7:55 AM 78.8 °F - 66.2 °F 65% 29.98 in 10.0 mi South 13.8 mph 20.7 mph N/A   Clear
8:15 AM 78.8 °F - 68.0 °F 69% 29.98 in 10.0 mi South 11.5 mph - N/A   Clear
8:35 AM 78.8 °F - 69.8 °F 74% 29.98 in 10.0 mi South 12.7 mph - N/A   Clear
8:55 AM 80.6 °F 83.9 °F 69.8 °F 70% 29.99 in 10.0 mi South 10.4 mph - N/A   Clear
9:15 AM 82.4 °F 86.3 °F 69.8 °F 66% 29.99 in 10.0 mi South 12.7 mph - N/A   Clear
9:35 AM 82.4 °F 86.3 °F 69.8 °F 66% 30.00 in 10.0 mi South 11.5 mph - N/A   Clear
9:55 AM 82.4 °F 86.3 °F 69.8 °F 66% 30.00 in 10.0 mi South 11.5 mph - N/A   Clear
10:15 AM 84.2 °F 89.6 °F 71.6 °F 66% 30.01 in 10.0 mi South 10.4 mph - N/A   Clear
10:35 AM 84.2 °F 89.6 °F 71.6 °F 66% 30.02 in 10.0 mi SSW 8.1 mph - N/A   Clear
10:55 AM 86.0 °F 91.8 °F 71.6 °F 62% 30.04 in 10.0 mi SW 6.9 mph - N/A   Clear
11:15 AM 86.0 °F 90.4 °F 69.8 °F 58% 30.05 in 10.0 mi SW 9.2 mph - N/A   Clear
11:35 AM 84.2 °F 87.3 °F 68.0 °F 58% 30.07 in 10.0 mi North 13.8 mph 19.6 mph N/A   Mostly Cloudy
11:55 AM 77.0 °F - 62.6 °F 61% 30.08 in 10.0 mi NE 24.2 mph 31.1 mph N/A   Overcast
12:15 PM 75.2 °F - 62.6 °F 65% 30.09 in 10.0 mi NE 26.5 mph 34.5 mph N/A   Overcast
12:35 PM 75.2 °F - 64.4 °F 69% 30.09 in 10.0 mi NE 21.9 mph 32.2 mph N/A   Mostly Cloudy
12:55 PM 75.2 °F - 64.4 °F 69% 30.08 in 10.0 mi ENE 20.7 mph 28.8 mph N/A   Scattered Clouds
1:15 PM 77.0 °F - 64.4 °F 65% 30.06 in 10.0 mi East 21.9 mph 27.6 mph N/A   Clear
1:35 PM 78.8 °F - 64.4 °F 61% 30.04 in 10.0 mi East 17.3 mph - N/A   Clear
1:55 PM 80.6 °F 82.3 °F 64.4 °F 58% 30.02 in 10.0 mi ESE 20.7 mph 24.2 mph N/A   Clear
2:15 PM 80.6 °F 82.3 °F 64.4 °F 58% 30.01 in 10.0 mi ESE 17.3 mph 21.9 mph N/A   Clear
2:35 PM 82.4 °F 84.6 °F 66.2 °F 58% 30.01 in 10.0 mi ESE 16.1 mph 23.0 mph N/A   Clear
2:55 PM 84.2 °F 86.6 °F 66.2 °F 55% 29.98 in 10.0 mi SE 17.3 mph 23.0 mph N/A   Clear
3:15 PM 86.0 °F 89.4 °F 68.0 °F 55% 29.98 in 10.0 mi SE 17.3 mph 20.7 mph N/A   Clear
3:35 PM 87.8 °F 91.4 °F 68.0 °F 52% 29.96 in 10.0 mi SE 17.3 mph - N/A   Clear
3:55 PM 87.8 °F 90.4 °F 66.2 °F 49% 29.96 in 10.0 mi SSE 17.3 mph - N/A   Clear
4:15 PM 86.0 °F 88.2 °F 66.2 °F 51% 29.95 in 10.0 mi SE 17.3 mph 23.0 mph N/A   Clear
4:35 PM 86.0 °F 89.4 °F 68.0 °F 55% 29.94 in 10.0 mi SE 20.7 mph 27.6 mph N/A   Clear
4:55 PM 86.0 °F 89.4 °F 68.0 °F 55% 29.94 in 10.0 mi SSE 17.3 mph 25.3 mph N/A   Clear
5:15 PM 86.0 °F 89.4 °F 68.0 °F 55% 29.93 in 10.0 mi SSE 17.3 mph 21.9 mph N/A   Clear
5:35 PM 84.2 °F 87.3 °F 68.0 °F 58% 29.92 in 10.0 mi SE 17.3 mph 23.0 mph N/A   Clear
5:55 PM 84.2 °F 87.3 °F 68.0 °F 58% 29.92 in 10.0 mi SE 13.8 mph 21.9 mph N/A   Clear
6:15 PM 84.2 °F 87.3 °F 68.0 °F 58% 29.91 in 10.0 mi SSE 12.7 mph 18.4 mph N/A   Clear
6:35 PM 84.2 °F 88.4 °F 69.8 °F 62% 29.92 in 10.0 mi SSE 9.2 mph - N/A   Clear
6:55 PM 84.2 °F 89.6 °F 71.6 °F 66% 29.92 in 10.0 mi South 9.2 mph - N/A   Clear
7:15 PM 84.2 °F 89.6 °F 71.6 °F 66% 29.92 in 10.0 mi South 8.1 mph - N/A   Clear
7:35 PM 84.2 °F 89.6 °F 71.6 °F 66% 29.91 in 10.0 mi South 5.8 mph - N/A   Clear
7:55 PM 84.2 °F 89.6 °F 71.6 °F 66% 29.92 in 10.0 mi South 5.8 mph - N/A   Clear
8:15 PM 84.2 °F 89.6 °F 71.6 °F 66% 29.93 in 10.0 mi SSE 5.8 mph - N/A   Clear
8:35 PM 82.4 °F 88.2 °F 73.4 °F 74% 29.94 in 10.0 mi SSE 5.8 mph - N/A   Clear
8:55 PM 82.4 °F 87.2 °F 71.6 °F 70% 29.95 in 10.0 mi South 5.8 mph - N/A   Clear
9:15 PM 82.4 °F 87.2 °F 71.6 °F 70% 29.97 in 10.0 mi SSE 4.6 mph - N/A   Scattered Clouds
9:35 PM 82.4 °F 87.2 °F 71.6 °F 70% 29.97 in 10.0 mi South 4.6 mph - N/A   Mostly Cloudy
9:55 PM 82.4 °F 87.2 °F 71.6 °F 70% 29.98 in 10.0 mi South 6.9 mph - N/A   Scattered Clouds
10:15 PM 82.4 °F 87.2 °F 71.6 °F 70% 29.99 in 10.0 mi South 8.1 mph - N/A   Scattered Clouds
10:35 PM 82.4 °F 87.2 °F 71.6 °F 70% 29.99 in 10.0 mi South 8.1 mph - N/A   Scattered Clouds
10:55 PM 82.4 °F 87.2 °F 71.6 °F 70% 29.99 in 10.0 mi South 8.1 mph - N/A   Scattered Clouds
11:15 PM 80.6 °F 84.6 °F 71.6 °F 74% 29.98 in 10.0 mi South 6.9 mph - N/A   Clear
11:35 PM 80.6 °F 84.6 °F 71.6 °F 74% 29.99 in 10.0 mi South 8.1 mph - N/A   Clear
11:55 PM 80.6 °F 84.6 °F 71.6 °F 74% 29.98 in 10.0 mi South 6.9 mph - N/A   Clear